Time;durP1;ratioP1;P1;durP2;ratioP2;P2;SDS_P1;SDS_P2;PMS_P1;PMS_P2;Temp;Humidity;BMP_temperature;BMP_pressure;BME280_temperature;BME280_humidity;BME280_pressure;Samples;Min_cycle;Max_cycle;Signal;HPM_P1;HPM_P2
2024/02/22 00:00:24;;;;;;;3.20;1.50;;;7.80;99.90;;;;;;5038416;28;20702;-58
2024/02/22 00:02:49;;;;;;;6.40;1.83;;;7.80;99.90;;;;;;5031020;28;20215;-60
2024/02/22 00:05:15;;;;;;;3.33;1.33;;;7.80;99.90;;;;;;5039650;28;20334;-60
2024/02/22 00:07:40;;;;;;;2.60;1.27;;;7.80;99.90;;;;;;5038390;28;20651;-55
2024/02/22 00:10:08;;;;;;;2.17;1.23;;;7.80;99.90;;;;;;5039177;28;20661;-57
2024/02/22 00:12:37;;;;;;;4.60;1.37;;;7.80;99.90;;;;;;5031297;28;20199;-59
2024/02/22 00:15:04;;;;;;;4.97;1.40;;;7.90;99.90;;;;;;5041256;28;20219;-58
2024/02/22 00:17:29;;;;;;;1.97;1.40;;;7.80;99.90;;;;;;5036655;28;20548;-54
2024/02/22 00:19:55;;;;;;;1.87;1.23;;;7.80;99.90;;;;;;5039325;28;20209;-56
2024/02/22 00:22:21;;;;;;;3.43;1.80;;;7.80;99.90;;;;;;5031088;28;20216;-57
2024/02/22 00:24:47;;;;;;;3.70;1.90;;;7.80;99.90;;;;;;5030986;28;20238;-60
2024/02/22 00:27:13;;;;;;;2.50;1.60;;;7.70;99.90;;;;;;5038541;28;20180;-56
2024/02/22 00:29:38;;;;;;;3.70;1.60;;;7.70;99.90;;;;;;5030984;28;20184;-57
2024/02/22 00:32:04;;;;;;;1.73;1.13;;;7.70;99.90;;;;;;5038889;28;20212;-58
2024/02/22 00:34:30;;;;;;;2.27;1.03;;;7.80;99.90;;;;;;5039251;28;20188;-55
2024/02/22 00:36:55;;;;;;;2.30;1.67;;;7.90;99.90;;;;;;5038421;28;20191;-58
2024/02/22 00:39:21;;;;;;;2.57;1.60;;;7.90;99.90;;;;;;5030960;28;20195;-56
2024/02/22 00:41:46;;;;;;;3.73;1.73;;;7.90;99.90;;;;;;5030601;28;20218;-58
2024/02/22 00:44:12;;;;;;;2.23;1.77;;;7.90;99.90;;;;;;5030755;28;20196;-57
2024/02/22 00:46:37;;;;;;;2.83;1.50;;;7.90;99.90;;;;;;5036638;28;20630;-58
2024/02/22 00:49:03;;;;;;;2.40;1.60;;;7.90;99.90;;;;;;5031901;28;20188;-55
2024/02/22 00:51:29;;;;;;;3.03;1.70;;;7.90;99.90;;;;;;5030532;28;20273;-54
2024/02/22 00:53:54;;;;;;;4.93;2.30;;;7.90;99.90;;;;;;5047087;28;20175;-58
2024/02/22 00:56:20;;;;;;;5.50;2.80;;;7.90;99.90;;;;;;5030538;28;20713;-58
2024/02/22 00:58:47;;;;;;;4.37;2.13;;;7.90;99.90;;;;;;5029960;28;20598;-58
2024/02/22 01:01:13;;;;;;;7.60;3.23;;;7.90;99.90;;;;;;5030452;28;20691;-59
2024/02/22 01:03:38;;;;;;;5.73;2.87;;;7.90;99.90;;;;;;5045549;28;20582;-58
2024/02/22 01:06:04;;;;;;;6.47;3.13;;;7.90;99.90;;;;;;5038813;28;20214;-59
2024/02/22 01:08:30;;;;;;;4.30;3.13;;;7.80;99.90;;;;;;5038131;28;20651;-55
2024/02/22 01:10:55;;;;;;;6.07;3.30;;;7.90;99.90;;;;;;5046579;28;20187;-55
2024/02/22 01:13:22;;;;;;;4.37;2.67;;;7.90;99.90;;;;;;5030309;28;20187;-55
2024/02/22 01:15:48;;;;;;;4.70;2.67;;;7.80;99.90;;;;;;5038111;28;20195;-58
2024/02/22 01:18:13;;;;;;;4.13;2.47;;;7.80;99.90;;;;;;5041158;28;20600;-55
2024/02/22 01:20:39;;;;;;;4.27;2.73;;;7.70;99.90;;;;;;5049899;28;20544;-54
2024/02/22 01:23:06;;;;;;;5.60;3.10;;;7.70;99.90;;;;;;5039493;28;20211;-58
2024/02/22 01:25:31;;;;;;;5.80;3.50;;;7.80;99.90;;;;;;5029931;28;20335;-55
2024/02/22 01:27:57;;;;;;;5.07;3.13;;;7.80;99.90;;;;;;5037883;28;20273;-58
2024/02/22 01:30:22;;;;;;;6.07;2.77;;;7.70;99.90;;;;;;5038248;28;20606;-56
2024/02/22 01:32:48;;;;;;;4.90;2.57;;;7.70;99.90;;;;;;5046150;28;20272;-54
2024/02/22 01:35:14;;;;;;;7.07;2.87;;;7.60;99.90;;;;;;5041845;28;20179;-56
2024/02/22 01:37:41;;;;;;;5.53;2.40;;;7.70;99.90;;;;;;5034161;28;20193;-59
2024/02/22 01:40:11;;;;;;;8.03;2.60;;;7.60;99.90;;;;;;5032376;28;20266;-57
2024/02/22 01:42:37;;;;;;;3.20;1.70;;;7.70;99.90;;;;;;5034866;28;20597;-57
2024/02/22 01:45:04;;;;;;;3.17;1.87;;;7.80;99.90;;;;;;5037826;28;20222;-56
2024/02/22 01:47:30;;;;;;;3.53;1.83;;;7.80;99.90;;;;;;5042867;28;20546;-55
2024/02/22 01:49:56;;;;;;;2.90;1.60;;;7.70;99.90;;;;;;5040262;28;20176;-57
2024/02/22 01:52:21;;;;;;;2.37;1.50;;;7.80;99.90;;;;;;5016309;28;20195;-58
2024/02/22 01:54:47;;;;;;;4.83;1.60;;;7.80;99.90;;;;;;5033236;28;20639;-54
2024/02/22 01:57:13;;;;;;;5.77;1.50;;;7.80;99.90;;;;;;5040182;28;20187;-54
2024/02/22 01:59:40;;;;;;;5.23;1.57;;;7.80;99.90;;;;;;5049578;28;20582;-54
2024/02/22 02:02:05;;;;;;;3.23;1.50;;;7.80;99.90;;;;;;5046882;28;20709;-55
2024/02/22 02:04:31;;;;;;;6.23;1.40;;;7.90;99.90;;;;;;5037634;28;20206;-57
2024/02/22 02:06:57;;;;;;;1.13;0.90;;;7.80;99.90;;;;;;5037665;28;20279;-57
2024/02/22 02:09:22;;;;;;;1.70;1.20;;;7.80;99.90;;;;;;5044974;28;20172;-57
2024/02/22 02:11:48;;;;;;;1.40;0.90;;;7.90;99.90;;;;;;5038095;28;20207;-58
2024/02/22 02:14:14;;;;;;;3.23;0.83;;;7.90;99.90;;;;;;5029407;28;20207;-54
2024/02/22 02:16:39;;;;;;;4.53;1.10;;;7.80;99.90;;;;;;5028849;28;20568;-55
2024/02/22 02:19:10;;;;;;;2.03;0.90;;;7.70;99.90;;;;;;5041409;28;20578;-54
2024/02/22 02:21:42;;;;;;;3.20;1.40;;;7.80;99.90;;;;;;5033547;28;20601;-56
2024/02/22 02:24:31;;;;;;;3.73;1.20;;;7.80;99.90;;;;;;5035694;28;20643;-54
2024/02/22 02:26:59;;;;;;;4.67;1.20;;;7.70;99.90;;;;;;5052559;28;20285;-54
2024/02/22 02:29:25;;;;;;;3.40;1.23;;;7.80;99.90;;;;;;5048458;28;20541;-55
2024/02/22 02:31:50;;;;;;;2.57;1.10;;;7.80;99.90;;;;;;5032906;28;20283;-57
2024/02/22 02:34:16;;;;;;;1.53;0.80;;;7.80;99.90;;;;;;5036857;28;20186;-59
2024/02/22 02:36:42;;;;;;;1.47;1.00;;;7.90;99.90;;;;;;5027437;28;20190;-56
2024/02/22 02:39:08;;;;;;;2.53;0.90;;;7.80;99.90;;;;;;5051918;28;20191;-56
2024/02/22 02:41:34;;;;;;;1.17;0.80;;;7.80;99.90;;;;;;5043922;28;20203;-55
2024/02/22 02:44:00;;;;;;;1.50;0.90;;;7.80;99.90;;;;;;5035097;28;20198;-57
2024/02/22 02:46:26;;;;;;;8.97;1.80;;;7.80;99.90;;;;;;5037643;28;20199;-60
2024/02/22 02:48:51;;;;;;;4.67;1.20;;;7.70;99.90;;;;;;5044138;28;20179;-55
2024/02/22 02:51:17;;;;;;;3.20;1.10;;;7.80;99.90;;;;;;5044438;28;20230;-54
2024/02/22 02:53:43;;;;;;;2.40;1.00;;;7.90;99.90;;;;;;5037496;28;20234;-55
2024/02/22 02:56:09;;;;;;;2.00;0.93;;;7.90;99.90;;;;;;5032625;28;20179;-58
2024/02/22 02:58:35;;;;;;;2.50;1.00;;;7.70;99.90;;;;;;5032471;28;20686;-55
2024/02/22 03:01:01;;;;;;;2.37;1.10;;;7.70;99.90;;;;;;5033845;28;20211;-55
2024/02/22 03:03:26;;;;;;;2.00;1.07;;;7.70;99.90;;;;;;5039742;28;20234;-57
2024/02/22 03:05:52;;;;;;;3.90;1.00;;;7.80;99.90;;;;;;5032613;28;20203;-58
2024/02/22 03:08:17;;;;;;;2.37;0.80;;;7.90;99.90;;;;;;5035940;28;20187;-55
2024/02/22 03:10:43;;;;;;;0.93;0.80;;;7.80;99.90;;;;;;5037280;28;20188;-55
2024/02/22 03:13:08;;;;;;;1.73;0.93;;;7.80;99.90;;;;;;5025222;28;20218;-56
2024/02/22 03:15:37;;;;;;;4.60;1.17;;;7.80;99.90;;;;;;5046499;28;20269;-57
2024/02/22 03:18:04;;;;;;;2.97;1.00;;;7.80;99.90;;;;;;5040607;28;20561;-57
2024/02/22 03:20:30;;;;;;;2.13;0.90;;;7.80;99.90;;;;;;5037644;28;20993;-56
2024/02/22 03:22:55;;;;;;;2.63;0.87;;;7.80;99.90;;;;;;5034951;28;20211;-55
2024/02/22 03:25:21;;;;;;;1.33;0.83;;;7.90;99.90;;;;;;5044637;28;20214;-58
2024/02/22 03:27:49;;;;;;;2.33;0.60;;;7.90;99.90;;;;;;5035911;28;20306;-58
2024/02/22 03:30:16;;;;;;;3.77;1.20;;;8.00;99.90;;;;;;5039472;28;20183;-56
2024/02/22 03:32:42;;;;;;;3.30;1.00;;;7.90;99.90;;;;;;5032154;28;20206;-60
2024/02/22 03:35:09;;;;;;;1.43;0.77;;;7.90;99.90;;;;;;5031887;28;20191;-57
2024/02/22 03:37:38;;;;;;;1.50;0.80;;;7.80;99.90;;;;;;5039874;28;20610;-59
2024/02/22 03:40:06;;;;;;;5.43;1.23;;;7.90;99.90;;;;;;5032183;28;20188;-55
2024/02/22 03:42:33;;;;;;;2.70;0.80;;;7.90;99.90;;;;;;5031883;28;20204;-55
2024/02/22 03:44:59;;;;;;;4.20;0.67;;;7.90;99.90;;;;;;5032551;28;20227;-57
2024/02/22 03:47:24;;;;;;;1.63;0.87;;;7.80;99.90;;;;;;5038481;28;20176;-57
2024/02/22 03:49:50;;;;;;;5.37;1.10;;;7.90;99.90;;;;;;5031725;28;20180;-58
2024/02/22 03:52:15;;;;;;;1.63;0.70;;;7.90;99.90;;;;;;5031900;28;20211;-59
2024/02/22 03:54:41;;;;;;;3.60;0.47;;;8.00;99.90;;;;;;5022214;28;20187;-57
2024/02/22 03:57:07;;;;;;;4.10;0.50;;;7.90;99.90;;;;;;5033182;28;20668;-58
2024/02/22 03:59:32;;;;;;;1.23;0.40;;;7.90;99.90;;;;;;5043459;28;20753;-54
2024/02/22 04:01:58;;;;;;;1.93;0.67;;;8.00;99.90;;;;;;5034141;28;20200;-60
2024/02/22 04:04:23;;;;;;;2.77;0.80;;;8.00;99.90;;;;;;5031637;28;20172;-60
2024/02/22 04:06:49;;;;;;;1.40;0.50;;;7.90;99.90;;;;;;5047540;28;20259;-59
2024/02/22 04:09:15;;;;;;;0.40;0.23;;;8.00;99.90;;;;;;5043621;28;20207;-59
2024/02/22 04:11:41;;;;;;;1.33;0.20;;;8.00;99.90;;;;;;5043243;28;20229;-57
2024/02/22 04:14:08;;;;;;;0.40;0.30;;;8.00;99.90;;;;;;5032852;28;20230;-57
2024/02/22 04:16:33;;;;;;;0.20;0.20;;;8.00;99.90;;;;;;5031151;28;20186;-58
2024/02/22 04:19:00;;;;;;;0.40;0.30;;;8.10;99.90;;;;;;5048722;28;20187;-59
2024/02/22 04:21:26;;;;;;;0.20;0.20;;;8.20;99.90;;;;;;5038382;28;20565;-57
2024/02/22 04:23:51;;;;;;;1.93;0.20;;;8.20;99.90;;;;;;5039377;28;20266;-58
2024/02/22 04:26:17;;;;;;;0.53;0.20;;;8.20;99.90;;;;;;5047275;28;20302;-59
2024/02/22 04:28:42;;;;;;;0.20;0.20;;;8.20;99.90;;;;;;5037711;28;20230;-56
2024/02/22 04:31:08;;;;;;;0.37;0.20;;;8.30;99.90;;;;;;5040176;28;20620;-56
2024/02/22 04:33:33;;;;;;;3.13;0.30;;;8.30;99.90;;;;;;5031332;28;20187;-56
2024/02/22 04:36:00;;;;;;;1.07;0.30;;;8.30;99.90;;;;;;5030894;28;20256;-59
2024/02/22 04:38:26;;;;;;;0.40;0.30;;;8.30;99.90;;;;;;5043528;28;20195;-58
2024/02/22 04:40:51;;;;;;;0.20;0.20;;;8.40;99.90;;;;;;5034370;28;20574;-59
2024/02/22 04:43:17;;;;;;;4.53;0.20;;;8.40;99.90;;;;;;5039227;28;20188;-56
2024/02/22 04:45:42;;;;;;;3.80;3.30;;;8.50;99.90;;;;;;5030640;28;20294;-56
2024/02/22 04:48:08;;;;;;;0.30;0.30;;;8.40;99.90;;;;;;5038274;28;20186;-58
2024/02/22 04:50:34;;;;;;;2.50;0.53;;;8.40;99.90;;;;;;5045001;28;20183;-57
2024/02/22 04:53:00;;;;;;;4.33;3.13;;;8.50;99.90;;;;;;5042327;28;20203;-57
2024/02/22 04:55:27;;;;;;;0.67;0.40;;;8.50;99.90;;;;;;5037482;28;20184;-56
2024/02/22 04:57:54;;;;;;;0.97;0.50;;;8.50;99.90;;;;;;5029890;28;20176;-60
2024/02/22 05:00:20;;;;;;;0.20;0.20;;;8.50;99.90;;;;;;5030472;28;20721;-55
2024/02/22 05:02:45;;;;;;;2.00;1.40;;;8.50;99.90;;;;;;5037009;28;20203;-59
2024/02/22 05:05:11;;;;;;;0.60;0.40;;;8.50;99.90;;;;;;5049293;28;20233;-59
2024/02/22 05:07:37;;;;;;;0.47;0.40;;;8.50;99.90;;;;;;5035326;28;20682;-60
2024/02/22 05:10:03;;;;;;;2.30;1.00;;;8.60;99.90;;;;;;5031701;28;20186;-58
2024/02/22 05:12:29;;;;;;;1.73;0.90;;;8.60;99.90;;;;;;5041954;28;20221;-58
2024/02/22 05:14:55;;;;;;;5.20;0.50;;;8.60;99.90;;;;;;5041424;28;20183;-57
2024/02/22 05:17:21;;;;;;;1.97;0.30;;;8.50;99.90;;;;;;5029553;28;20246;-57
2024/02/22 05:19:47;;;;;;;1.33;0.63;;;8.50;99.90;;;;;;5030054;28;20191;-57
2024/02/22 05:22:13;;;;;;;2.67;0.30;;;8.50;99.90;;;;;;5030024;28;20208;-58
2024/02/22 05:24:39;;;;;;;0.77;0.30;;;8.50;99.90;;;;;;5044726;28;20648;-57
2024/02/22 05:27:05;;;;;;;2.83;0.40;;;8.50;99.90;;;;;;5031110;28;20184;-58
2024/02/22 05:29:31;;;;;;;1.50;0.60;;;8.50;99.90;;;;;;5038668;28;20699;-56
2024/02/22 05:31:58;;;;;;;2.77;0.40;;;8.60;99.90;;;;;;5037957;28;20294;-58
2024/02/22 05:34:25;;;;;;;1.97;0.23;;;8.60;99.90;;;;;;5030290;28;20215;-57
2024/02/22 05:36:50;;;;;;;1.90;0.40;;;8.60;99.90;;;;;;5029416;28;20214;-58
2024/02/22 05:39:16;;;;;;;1.47;0.47;;;8.60;99.90;;;;;;5033408;28;20187;-58
2024/02/22 05:41:42;;;;;;;0.27;0.27;;;8.60;99.90;;;;;;5034676;28;20207;-58
2024/02/22 05:44:07;;;;;;;1.63;0.40;;;8.60;99.90;;;;;;5037763;28;20245;-56
2024/02/22 05:46:33;;;;;;;1.20;0.37;;;8.60;99.90;;;;;;5035288;28;20257;-57
2024/02/22 05:48:59;;;;;;;0.67;0.40;;;8.60;99.90;;;;;;5035756;28;20237;-58
2024/02/22 05:51:25;;;;;;;0.50;0.20;;;8.60;99.90;;;;;;5033281;28;20256;-59
2024/02/22 05:53:51;;;;;;;0.40;0.20;;;8.70;99.90;;;;;;5046400;28;20214;-59
2024/02/22 05:56:17;;;;;;;0.70;0.30;;;8.70;99.90;;;;;;5033431;28;20190;-59
2024/02/22 05:58:42;;;;;;;3.10;0.40;;;8.70;99.90;;;;;;5033868;28;20205;-59
2024/02/22 06:01:09;;;;;;;0.90;0.30;;;8.60;99.90;;;;;;5029548;28;20211;-58
2024/02/22 06:03:34;;;;;;;0.37;0.30;;;8.70;99.90;;;;;;5037713;28;20185;-60
2024/02/22 06:06:00;;;;;;;2.10;0.30;;;8.70;99.90;;;;;;5037963;28;20212;-59
2024/02/22 06:08:25;;;;;;;1.00;0.30;;;8.70;99.90;;;;;;5029731;28;20250;-60
2024/02/22 06:10:54;;;;;;;0.27;0.20;;;8.80;99.90;;;;;;5037901;28;20647;-58
2024/02/22 06:13:19;;;;;;;1.00;0.30;;;8.60;99.90;;;;;;5038359;28;20179;-59
2024/02/22 06:15:45;;;;;;;4.53;2.00;;;8.60;99.90;;;;;;5029780;28;20556;-59
2024/02/22 06:18:11;;;;;;;1.67;0.63;;;8.60;99.90;;;;;;5028993;28;20636;-58
2024/02/22 06:20:36;;;;;;;2.80;0.50;;;8.70;99.90;;;;;;5038252;28;20179;-58
2024/02/22 06:23:03;;;;;;;5.20;2.97;;;8.70;99.90;;;;;;5030870;28;20203;-60
2024/02/22 06:25:29;;;;;;;3.77;2.10;;;8.70;99.90;;;;;;5041356;28;20202;-60
2024/02/22 06:27:55;;;;;;;0.43;0.33;;;8.70;99.90;;;;;;5040277;28;20202;-59
2024/02/22 06:30:21;;;;;;;1.90;0.90;;;8.70;99.90;;;;;;5038043;28;20195;-58
2024/02/22 06:32:47;;;;;;;0.77;0.30;;;8.70;99.90;;;;;;5029696;28;20188;-60
2024/02/22 06:35:13;;;;;;;0.30;0.20;;;8.60;99.90;;;;;;5037590;28;20196;-60
2024/02/22 06:37:39;;;;;;;0.30;0.20;;;8.70;99.90;;;;;;5041171;28;20261;-57
2024/02/22 06:40:07;;;;;;;1.20;0.30;;;8.80;99.90;;;;;;5032770;28;20195;-57
2024/02/22 06:42:36;;;;;;;0.93;0.40;;;8.80;99.90;;;;;;5038827;28;20229;-58
2024/02/22 06:45:02;;;;;;;2.50;0.33;;;8.80;99.90;;;;;;5030493;28;20219;-59
2024/02/22 06:47:28;;;;;;;0.50;0.33;;;8.80;99.90;;;;;;5033186;28;20236;-58
2024/02/22 06:49:54;;;;;;;0.40;0.30;;;8.70;99.90;;;;;;5032157;28;20180;-58
2024/02/22 06:52:19;;;;;;;0.53;0.30;;;8.70;99.90;;;;;;5031870;28;20208;-60
2024/02/22 06:54:45;;;;;;;0.20;0.20;;;8.80;99.90;;;;;;5036442;28;20198;-59
2024/02/22 06:57:11;;;;;;;0.37;0.20;;;8.90;99.90;;;;;;5029066;28;20725;-60
2024/02/22 06:59:36;;;;;;;0.70;0.30;;;8.90;99.90;;;;;;5035043;28;20175;-58
2024/02/22 07:02:05;;;;;;;0.63;0.33;;;8.90;99.90;;;;;;5048838;28;20237;-58
2024/02/22 07:04:30;;;;;;;0.43;0.30;;;8.90;99.90;;;;;;5041564;28;20175;-59
2024/02/22 07:06:57;;;;;;;0.80;0.30;;;9.00;99.90;;;;;;5042566;28;20214;-58
2024/02/22 07:09:22;;;;;;;3.50;0.40;;;9.10;99.90;;;;;;5036377;28;20722;-58
2024/02/22 07:11:48;;;;;;;2.93;1.00;;;9.10;99.90;;;;;;5036248;28;20282;-55
2024/02/22 07:14:14;;;;;;;8.77;3.13;;;9.10;99.90;;;;;;5040610;28;20222;-60
2024/02/22 07:16:40;;;;;;;11.57;3.27;;;9.10;99.90;;;;;;5037846;28;20206;-59
2024/02/22 07:19:07;;;;;;;5.97;1.70;;;9.20;99.90;;;;;;5050064;28;20191;-58
2024/02/22 07:21:33;;;;;;;2.30;1.00;;;9.10;99.90;;;;;;5037460;28;20203;-58
2024/02/22 07:23:59;;;;;;;1.67;0.60;;;9.20;99.90;;;;;;5042825;28;20191;-60
2024/02/22 07:26:25;;;;;;;1.87;0.67;;;9.10;99.90;;;;;;5036494;28;20594;-57
2024/02/22 07:28:50;;;;;;;1.57;0.60;;;9.20;99.90;;;;;;5043671;28;20172;-60
2024/02/22 07:31:16;;;;;;;2.60;1.30;;;9.20;99.90;;;;;;5031441;28;20826;-59
2024/02/22 07:33:42;;;;;;;4.97;1.50;;;9.20;99.90;;;;;;5038307;28;20262;-59
2024/02/22 07:36:07;;;;;;;3.23;1.43;;;9.30;99.90;;;;;;5033010;28;20597;-59
2024/02/22 07:38:33;;;;;;;2.60;1.10;;;9.40;99.90;;;;;;5031141;28;20660;-60
2024/02/22 07:41:05;;;;;;;1.43;0.67;;;9.40;99.90;;;;;;5032057;28;20274;-59
2024/02/22 07:43:31;;;;;;;3.20;0.83;;;9.50;99.90;;;;;;5046508;28;20231;-60
2024/02/22 07:45:56;;;;;;;2.40;0.40;;;9.50;99.90;;;;;;5037273;28;20418;-59
2024/02/22 07:48:22;;;;;;;3.43;0.73;;;9.50;99.90;;;;;;5053297;28;20662;-57
2024/02/22 07:50:47;;;;;;;1.23;0.73;;;9.50;99.90;;;;;;5053588;28;20229;-59
2024/02/22 07:53:13;;;;;;;4.73;0.83;;;9.60;99.90;;;;;;5053574;28;20208;-59
2024/02/22 07:55:39;;;;;;;1.70;0.83;;;9.70;99.90;;;;;;5038329;28;21432;-59
2024/02/22 07:58:04;;;;;;;1.73;0.80;;;9.70;99.90;;;;;;5038804;28;20195;-60
2024/02/22 08:00:30;;;;;;;7.73;1.37;;;9.80;99.90;;;;;;5033330;28;20175;-60
2024/02/22 08:02:55;;;;;;;6.43;1.10;;;9.80;99.90;;;;;;5042417;28;20208;-60
2024/02/22 08:05:22;;;;;;;0.73;0.30;;;9.80;99.90;;;;;;5042982;28;20221;-58
2024/02/22 08:07:48;;;;;;;5.37;0.90;;;9.70;99.90;;;;;;5034580;28;20180;-60
2024/02/22 08:10:14;;;;;;;11.27;2.03;;;9.60;99.90;;;;;;5050031;28;20752;-58
2024/02/22 08:12:39;;;;;;;0.50;0.20;;;9.50;99.90;;;;;;5036575;28;20218;-59
2024/02/22 08:15:07;;;;;;;3.70;0.60;;;9.50;99.90;;;;;;5039944;28;20211;-59
2024/02/22 08:17:35;;;;;;;3.93;0.53;;;9.50;99.90;;;;;;5044764;28;20266;-60
2024/02/22 08:20:00;;;;;;;1.33;0.40;;;9.60;99.90;;;;;;5039407;28;20191;-57
2024/02/22 08:22:26;;;;;;;2.20;0.50;;;9.70;99.90;;;;;;5038826;28;20215;-60
2024/02/22 08:24:52;;;;;;;0.73;0.40;;;9.80;99.90;;;;;;5030698;28;20187;-58
2024/02/22 08:27:18;;;;;;;2.57;1.13;;;9.80;99.90;;;;;;5038633;28;20263;-58
2024/02/22 08:29:48;;;;;;;0.57;0.40;;;9.90;99.90;;;;;;5030585;28;20199;-59
2024/02/22 08:32:14;;;;;;;0.20;0.20;;;10.00;99.90;;;;;;5033276;28;20230;-59
2024/02/22 08:34:39;;;;;;;3.70;1.57;;;10.20;99.90;;;;;;5044329;28;20703;-58
2024/02/22 08:37:05;;;;;;;5.83;1.90;;;10.30;99.90;;;;;;5021362;28;20711;-59
2024/02/22 08:39:30;;;;;;;9.27;1.60;;;10.40;99.90;;;;;;5037373;28;20176;-60
2024/02/22 08:41:56;;;;;;;3.47;1.90;;;10.50;99.90;;;;;;5038680;28;20528;-59
2024/02/22 08:44:21;;;;;;;3.57;1.77;;;10.50;99.90;;;;;;5033689;28;20207;-60
2024/02/22 08:46:47;;;;;;;4.30;0.80;;;10.50;99.90;;;;;;5041407;28;20211;-59
2024/02/22 08:49:12;;;;;;;2.97;0.67;;;10.60;99.90;;;;;;5039476;28;20558;-59
2024/02/22 08:51:38;;;;;;;8.80;1.00;;;10.60;99.90;;;;;;5044341;28;20572;-58
2024/02/22 08:54:04;;;;;;;2.80;1.97;;;10.80;99.90;;;;;;5048832;28;20179;-58
2024/02/22 08:56:29;;;;;;;7.77;4.07;;;11.00;99.90;;;;;;5034999;28;20226;-60
2024/02/22 08:58:57;;;;;;;2.10;1.37;;;11.00;99.90;;;;;;5032913;28;20176;-60
2024/02/22 09:01:23;;;;;;;2.27;1.00;;;11.10;99.90;;;;;;5030257;28;20208;-58
2024/02/22 09:03:49;;;;;;;1.77;0.77;;;11.10;99.90;;;;;;5030177;28;20179;-60
2024/02/22 09:06:15;;;;;;;3.27;1.00;;;11.20;99.90;;;;;;5037562;28;20211;-58
2024/02/22 09:08:41;;;;;;;2.87;1.20;;;11.30;99.90;;;;;;5035991;28;20672;-57
2024/02/22 09:11:07;;;;;;;1.80;0.90;;;11.20;99.90;;;;;;5041858;28;20218;-60
2024/02/22 09:13:33;;;;;;;0.93;0.60;;;11.30;99.90;;;;;;5041308;28;20179;-59
2024/02/22 09:15:59;;;;;;;1.87;0.90;;;11.30;99.90;;;;;;5041569;28;20241;-58
2024/02/22 09:18:24;;;;;;;0.77;0.53;;;11.20;99.90;;;;;;5045588;28;20521;-60
2024/02/22 09:20:50;;;;;;;0.70;0.30;;;11.10;99.90;;;;;;5029611;28;20178;-58
2024/02/22 09:23:16;;;;;;;0.93;0.40;;;11.00;99.90;;;;;;5028124;28;20609;-59
2024/02/22 09:25:43;;;;;;;1.97;0.50;;;11.10;99.90;;;;;;5029401;28;20215;-59
2024/02/22 09:28:09;;;;;;;0.30;0.30;;;11.10;99.90;;;;;;5036994;28;20552;-59
2024/02/22 09:30:35;;;;;;;1.23;0.60;;;11.20;99.90;;;;;;5029657;28;20678;-58
2024/02/22 09:33:01;;;;;;;5.00;1.73;;;11.10;99.90;;;;;;5029478;28;20290;-58
2024/02/22 09:35:27;;;;;;;2.73;0.70;;;11.20;99.90;;;;;;5029227;28;20172;-58
2024/02/22 09:37:52;;;;;;;1.57;0.40;;;11.20;99.90;;;;;;5037221;28;20254;-59
2024/02/22 09:40:21;;;;;;;0.70;0.40;;;11.40;99.90;;;;;;5045860;28;20233;-60
2024/02/22 09:42:47;;;;;;;0.60;0.53;;;11.10;99.90;;;;;;5029297;28;20278;-59
2024/02/22 09:45:14;;;;;;;0.70;0.57;;;11.00;99.90;;;;;;5031515;28;20413;-55
2024/02/22 09:47:41;;;;;;;0.50;0.33;;;10.80;99.90;;;;;;5034207;28;20670;-59
2024/02/22 09:50:10;;;;;;;1.90;0.60;;;10.70;99.90;;;;;;5037186;28;20260;-60
2024/02/22 09:52:36;;;;;;;2.23;0.50;;;10.60;99.90;;;;;;5039003;28;20199;-59
2024/02/22 09:55:03;;;;;;;3.80;0.70;;;10.50;99.90;;;;;;5039439;28;20223;-60
2024/02/22 09:57:29;;;;;;;2.03;1.70;;;10.50;99.90;;;;;;5035557;28;20191;-59
2024/02/22 09:59:54;;;;;;;1.60;0.93;;;10.50;99.90;;;;;;5045265;28;20179;-61
2024/02/22 10:02:22;;;;;;;1.47;0.70;;;10.50;99.90;;;;;;5032173;28;20302;-59
2024/02/22 10:04:54;;;;;;;4.03;1.70;;;10.40;99.90;;;;;;5033217;28;20195;-60
2024/02/22 10:07:28;;;;;;;0.90;0.80;;;10.30;99.90;;;;;;5028461;28;20184;-60
2024/02/22 10:09:54;;;;;;;2.90;0.70;;;10.30;99.90;;;;;;5036933;28;20711;-60
2024/02/22 10:12:24;;;;;;;0.97;0.73;;;10.30;99.90;;;;;;5037130;28;20195;-58
2024/02/22 10:14:50;;;;;;;2.60;0.73;;;10.40;99.90;;;;;;5036886;28;20530;-60
2024/02/22 10:17:24;;;;;;;0.60;0.60;;;10.50;99.90;;;;;;5028807;28;20183;-60
2024/02/22 10:20:07;;;;;;;0.90;0.70;;;10.40;99.90;;;;;;5044758;28;20250;-60
2024/02/22 10:22:39;;;;;;;1.30;0.60;;;10.40;99.90;;;;;;5034009;28;20206;-60
2024/02/22 10:25:09;;;;;;;0.53;0.53;;;10.40;99.90;;;;;;5032080;28;20667;-60
2024/02/22 10:27:35;;;;;;;3.20;0.70;;;10.50;99.90;;;;;;5042723;28;20176;-60
2024/02/22 10:30:01;;;;;;;1.10;0.57;;;10.60;99.90;;;;;;5029647;28;20193;-60
2024/02/22 10:32:26;;;;;;;4.03;0.70;;;10.70;99.90;;;;;;5040489;28;20207;-60
2024/02/22 10:34:53;;;;;;;2.70;0.50;;;10.70;99.90;;;;;;5014660;28;20678;-60
2024/02/22 10:37:18;;;;;;;0.70;0.50;;;10.70;99.90;;;;;;5028262;28;20245;-60
2024/02/22 10:39:49;;;;;;;0.97;0.60;;;10.90;99.90;;;;;;5040404;28;20180;-59
2024/02/22 10:42:15;;;;;;;1.57;0.70;;;10.90;99.90;;;;;;5040334;28;20230;-59
2024/02/22 10:44:45;;;;;;;2.07;0.70;;;11.10;99.90;;;;;;5040618;28;20196;-60
2024/02/22 10:47:14;;;;;;;4.50;0.67;;;11.20;99.90;;;;;;5048269;28;20262;-60
2024/02/22 10:49:43;;;;;;;9.20;0.70;;;11.10;99.90;;;;;;5046704;28;20186;-59
2024/02/22 10:52:12;;;;;;;1.00;0.53;;;11.40;99.90;;;;;;5033918;28;20204;-60
2024/02/22 10:54:41;;;;;;;1.53;0.70;;;11.70;99.90;;;;;;5032383;28;20230;-60
2024/02/22 10:57:09;;;;;;;0.43;0.30;;;11.90;99.90;;;;;;5032995;28;20513;-57
2024/02/22 10:59:36;;;;;;;1.70;0.80;;;11.90;99.90;;;;;;5046842;28;20184;-58
2024/02/22 11:02:03;;;;;;;1.03;0.60;;;11.90;99.90;;;;;;5032720;28;20239;-60
2024/02/22 11:04:30;;;;;;;1.43;0.60;;;11.90;99.90;;;;;;5039170;28;20183;-60
2024/02/22 11:07:06;;;;;;;0.90;0.70;;;11.60;99.90;;;;;;5048056;28;20210;-59
2024/02/22 11:09:39;;;;;;;2.07;1.10;;;11.60;99.90;;;;;;5032089;28;20179;-57
2024/02/22 11:12:06;;;;;;;0.67;0.40;;;11.60;99.90;;;;;;5049499;28;20215;-58
2024/02/22 11:14:40;;;;;;;1.40;0.93;;;11.30;99.90;;;;;;5046944;28;20550;-56
2024/02/22 11:17:15;;;;;;;0.60;0.47;;;11.30;99.90;;;;;;5031245;28;20188;-58
2024/02/22 11:19:41;;;;;;;0.60;0.50;;;11.30;99.90;;;;;;5045985;28;20640;-57
2024/02/22 11:22:18;;;;;;;1.07;0.40;;;11.30;99.90;;;;;;5034962;28;20298;-57
2024/02/22 11:24:44;;;;;;;0.73;0.50;;;11.30;99.90;;;;;;5051694;28;20218;-58
2024/02/22 11:27:15;;;;;;;0.40;0.30;;;11.40;99.90;;;;;;5049064;28;20261;-57
2024/02/22 11:29:40;;;;;;;0.60;0.50;;;11.50;99.90;;;;;;5031584;28;20203;-58
2024/02/22 11:32:06;;;;;;;0.90;0.40;;;11.50;99.90;;;;;;5040622;28;20746;-57
2024/02/22 11:34:34;;;;;;;0.40;0.40;;;11.70;99.90;;;;;;5038722;28;20260;-59
2024/02/22 11:37:17;;;;;;;0.70;0.40;;;11.60;99.90;;;;;;5031407;28;20513;-56
2024/02/22 11:39:46;;;;;;;0.83;0.60;;;11.80;99.90;;;;;;5036959;28;20241;-58
2024/02/22 11:42:15;;;;;;;0.60;0.47;;;12.00;99.90;;;;;;5037505;28;20222;-57
2024/02/22 11:44:44;;;;;;;1.23;0.43;;;12.10;99.90;;;;;;5040610;28;20191;-56
2024/02/22 11:47:13;;;;;;;1.00;0.50;;;12.30;99.90;;;;;;5040827;28;20228;-58
2024/02/22 11:49:42;;;;;;;0.60;0.40;;;12.30;99.90;;;;;;5034893;28;20540;-56
2024/02/22 11:52:08;;;;;;;9.07;0.90;;;12.40;99.90;;;;;;5039280;28;20199;-58
2024/02/22 11:54:34;;;;;;;0.83;0.40;;;12.40;99.90;;;;;;5039486;28;20180;-58
2024/02/22 11:57:02;;;;;;;0.60;0.40;;;12.50;99.90;;;;;;5046785;28;20215;-60
2024/02/22 11:59:28;;;;;;;0.60;0.30;;;12.50;99.90;;;;;;5043583;28;20194;-59
2024/02/22 12:01:54;;;;;;;0.40;0.30;;;12.40;99.90;;;;;;5034920;28;20290;-61
2024/02/22 12:04:20;;;;;;;0.53;0.40;;;12.40;99.90;;;;;;5038926;28;20259;-58
2024/02/22 12:06:46;;;;;;;0.53;0.40;;;12.30;99.90;;;;;;5036639;28;20635;-59
2024/02/22 12:09:13;;;;;;;0.73;0.53;;;12.30;99.90;;;;;;5038670;28;20214;-57
2024/02/22 12:11:40;;;;;;;0.87;0.50;;;12.30;99.90;;;;;;5036617;28;20580;-59
2024/02/22 12:14:05;;;;;;;0.50;0.40;;;12.20;99.90;;;;;;5038677;28;20605;-58
2024/02/22 12:16:38;;;;;;;0.87;0.60;;;12.00;99.90;;;;;;5040112;28;20272;-58
2024/02/22 12:19:04;;;;;;;1.20;0.80;;;12.00;99.90;;;;;;5037664;28;20195;-55
2024/02/22 12:21:30;;;;;;;1.83;0.50;;;12.00;99.90;;;;;;5037719;28;20203;-58
2024/02/22 12:24:03;;;;;;;0.40;0.30;;;11.80;99.90;;;;;;5036833;28;20302;-59
2024/02/22 12:26:28;;;;;;;2.20;0.77;;;11.70;99.90;;;;;;5034367;28;20222;-60
2024/02/22 12:28:57;;;;;;;0.60;0.50;;;11.50;99.90;;;;;;5034586;28;20574;-61
2024/02/22 12:31:24;;;;;;;1.57;0.40;;;11.50;99.90;;;;;;5039170;28;20195;-61
2024/02/22 12:33:53;;;;;;;2.10;1.30;;;11.50;99.90;;;;;;5038789;28;20172;-60
2024/02/22 12:36:20;;;;;;;1.27;0.60;;;11.40;99.90;;;;;;5020776;28;20275;-61
2024/02/22 12:38:46;;;;;;;1.47;0.70;;;11.50;99.90;;;;;;5038337;28;20451;-59
2024/02/22 12:41:12;;;;;;;0.50;0.50;;;11.50;99.90;;;;;;5046688;28;20214;-59
2024/02/22 12:43:46;;;;;;;1.13;0.50;;;11.50;99.90;;;;;;5044167;28;20639;-60
2024/02/22 12:46:13;;;;;;;1.17;0.60;;;11.60;99.90;;;;;;5031472;28;20243;-59
2024/02/22 12:48:39;;;;;;;0.20;0.20;;;11.80;99.90;;;;;;5038252;28;20188;-60